sensor_id;sensor_type;location;lat;lon;timestamp;pressure;altitude;pressure_sealevel;temperature;humidity
17505;BME280;8870;50.950;11.762;2023-02-08T00:02:12;100670.66;;;-6.22;100.00
17505;BME280;8870;50.950;11.762;2023-02-08T00:07:55;100667.13;;;-6.24;100.00
17505;BME280;8870;50.950;11.762;2023-02-08T00:13:33;100661.88;;;-6.24;100.00
17505;BME280;8870;50.950;11.762;2023-02-08T00:19:03;100662.75;;;-6.25;100.00
17505;BME280;8870;50.950;11.762;2023-02-08T00:24:27;100661.88;;;-6.27;100.00
17505;BME280;8870;50.950;11.762;2023-02-08T00:29:57;100654.00;;;-6.27;100.00
17505;BME280;8870;50.950;11.762;2023-02-08T00:35:16;100663.66;;;-6.32;100.00
17505;BME280;8870;50.950;11.762;2023-02-08T00:40:50;100663.63;;;-6.40;100.00
17505;BME280;8870;50.950;11.762;2023-02-08T00:46:22;100655.75;;;-6.51;100.00
17505;BME280;8870;50.950;11.762;2023-02-08T00:51:41;100657.50;;;-6.59;100.00
17505;BME280;8870;50.950;11.762;2023-02-08T00:57:14;100658.34;;;-6.69;100.00
17505;BME280;8870;50.950;11.762;2023-02-08T01:02:36;100657.47;;;-6.73;100.00
17505;BME280;8870;50.950;11.762;2023-02-08T01:08:07;100659.22;;;-6.76;100.00
17505;BME280;8870;50.950;11.762;2023-02-08T01:13:28;100661.84;;;-6.76;100.00
17505;BME280;8870;50.950;11.762;2023-02-08T01:19:02;100658.34;;;-6.77;100.00
17505;BME280;8870;50.950;11.762;2023-02-08T01:24:20;100653.97;;;-6.79;100.00
17505;BME280;8870;50.950;11.762;2023-02-08T01:29:53;100660.97;;;-6.83;100.00
17505;BME280;8870;50.950;11.762;2023-02-08T01:35:12;100656.56;;;-6.86;100.00
17505;BME280;8870;50.950;11.762;2023-02-08T01:40:45;100655.69;;;-6.89;100.00
17505;BME280;8870;50.950;11.762;2023-02-08T01:46:21;100653.06;;;-6.89;100.00
17505;BME280;8870;50.950;11.762;2023-02-08T01:51:41;100661.81;;;-6.89;100.00
17505;BME280;8870;50.950;11.762;2023-02-08T01:57:14;100659.19;;;-6.89;100.00
17505;BME280;8870;50.950;11.762;2023-02-08T02:02:35;100663.53;;;-6.95;100.00
17505;BME280;8870;50.950;11.762;2023-02-08T02:08:09;100659.16;;;-7.01;100.00
17505;BME280;8870;50.950;11.762;2023-02-08T02:13:28;100656.50;;;-7.07;100.00
17505;BME280;8870;50.950;11.762;2023-02-08T02:19:04;100645.13;;;-7.14;100.00
17505;BME280;8870;50.950;11.762;2023-02-08T02:24:41;100645.13;;;-7.20;100.00
17505;BME280;8870;50.950;11.762;2023-02-08T02:30:31;100651.19;;;-7.24;100.00
17505;BME280;8870;50.950;11.762;2023-02-08T02:35:58;100645.94;;;-7.29;100.00
17505;BME280;8870;50.950;11.762;2023-02-08T02:41:38;100645.94;;;-7.29;100.00
17505;BME280;8870;50.950;11.762;2023-02-08T02:47:15;100638.97;;;-7.30;100.00
17505;BME280;8870;50.950;11.762;2023-02-08T02:52:58;100645.94;;;-7.35;100.00
17505;BME280;8870;50.950;11.762;2023-02-08T02:58:19;100647.63;;;-7.44;100.00
17505;BME280;8870;50.950;11.762;2023-02-08T03:03:52;100640.63;;;-7.51;100.00
17505;BME280;8870;50.950;11.762;2023-02-08T03:15:15;100633.59;;;-7.55;100.00
17505;BME280;8870;50.950;11.762;2023-02-08T03:20:41;100637.09;;;-7.56;100.00
17505;BME280;8870;50.950;11.762;2023-02-08T03:26:21;100651.03;;;-7.57;100.00
17505;BME280;8870;50.950;11.762;2023-02-08T03:31:44;100656.28;;;-7.59;100.00
17505;BME280;8870;50.950;11.762;2023-02-08T03:37:20;100658.03;;;-7.62;100.00
17505;BME280;8870;50.950;11.762;2023-02-08T03:42:43;100659.72;;;-7.67;100.00
17505;BME280;8870;50.950;11.762;2023-02-08T03:48:18;100650.09;;;-7.76;100.00
17505;BME280;8870;50.950;11.762;2023-02-08T03:53:40;100653.56;;;-7.79;100.00
17505;BME280;8870;50.950;11.762;2023-02-08T03:59:19;100664.88;;;-7.83;100.00
17505;BME280;8870;50.950;11.762;2023-02-08T04:04:41;100665.72;;;-7.85;100.00
17505;BME280;8870;50.950;11.762;2023-02-08T04:10:14;100675.28;;;-7.89;100.00
17505;BME280;8870;50.950;11.762;2023-02-08T04:15:34;100672.66;;;-7.94;100.00
17505;BME280;8870;50.950;11.762;2023-02-08T04:21:06;100678.75;;;-7.93;100.00
17505;BME280;8870;50.950;11.762;2023-02-08T04:26:24;100674.41;;;-7.91;100.00
17505;BME280;8870;50.950;11.762;2023-02-08T04:31:58;100666.56;;;-7.91;100.00
17505;BME280;8870;50.950;11.762;2023-02-08T04:37:24;100662.19;;;-7.92;100.00
17505;BME280;8870;50.950;11.762;2023-02-08T04:42:55;100662.19;;;-7.92;100.00
17505;BME280;8870;50.950;11.762;2023-02-08T04:48:17;100655.19;;;-7.96;100.00
17505;BME280;8870;50.950;11.762;2023-02-08T04:53:49;100648.22;;;-7.97;100.00
17505;BME280;8870;50.950;11.762;2023-02-08T04:59:07;100649.03;;;-8.01;100.00
17505;BME280;8870;50.950;11.762;2023-02-08T05:04:40;100645.53;;;-8.03;100.00
17505;BME280;8870;50.950;11.762;2023-02-08T05:10:02;100641.16;;;-8.06;100.00
17505;BME280;8870;50.950;11.762;2023-02-08T05:15:34;100635.06;;;-8.07;100.00
17505;BME280;8870;50.950;11.762;2023-02-08T05:20:59;100640.28;;;-8.10;100.00
17505;BME280;8870;50.950;11.762;2023-02-08T05:26:31;100642.00;;;-8.12;100.00
17505;BME280;8870;50.950;11.762;2023-02-08T05:31:49;100639.34;;;-8.15;100.00
17505;BME280;8870;50.950;11.762;2023-02-08T05:37:23;100642.84;;;-8.17;100.00
17505;BME280;8870;50.950;11.762;2023-02-08T05:42:42;100641.94;;;-8.21;100.00
17505;BME280;8870;50.950;11.762;2023-02-08T05:48:12;100639.28;;;-8.23;100.00
17505;BME280;8870;50.950;11.762;2023-02-08T05:53:33;100641.94;;;-8.21;100.00
17505;BME280;8870;50.950;11.762;2023-02-08T05:59:06;100642.78;;;-8.21;100.00
17505;BME280;8870;50.950;11.762;2023-02-08T06:04:24;100647.16;;;-8.20;100.00
17505;BME280;8870;50.950;11.762;2023-02-08T06:09:57;100650.69;;;-8.19;100.00
17505;BME280;8870;50.950;11.762;2023-02-08T06:15:18;100661.13;;;-8.19;100.00
17505;BME280;8870;50.950;11.762;2023-02-08T06:20:51;100666.38;;;-8.17;100.00
17505;BME280;8870;50.950;11.762;2023-02-08T06:26:12;100673.34;;;-8.16;100.00
17505;BME280;8870;50.950;11.762;2023-02-08T06:31:44;100666.38;;;-8.16;100.00
17505;BME280;8870;50.950;11.762;2023-02-08T06:37:02;100678.59;;;-8.15;100.00
17505;BME280;8870;50.950;11.762;2023-02-08T06:42:35;100673.34;;;-8.15;100.00
17505;BME280;8870;50.950;11.762;2023-02-08T06:47:54;100672.47;;;-8.17;100.00
17505;BME280;8870;50.950;11.762;2023-02-08T06:53:25;100675.06;;;-8.17;100.00
17505;BME280;8870;50.950;11.762;2023-02-08T06:58:45;100682.91;;;-8.18;100.00
17505;BME280;8870;50.950;11.762;2023-02-08T07:04:16;100692.53;;;-8.17;100.00
17505;BME280;8870;50.950;11.762;2023-02-08T07:09:36;100686.44;;;-8.18;100.00
17505;BME280;8870;50.950;11.762;2023-02-08T07:15:09;100679.44;;;-8.19;100.00
17505;BME280;8870;50.950;11.762;2023-02-08T07:20:29;100675.97;;;-8.18;100.00
17505;BME280;8870;50.950;11.762;2023-02-08T07:26:01;100679.44;;;-8.16;100.00
17505;BME280;8870;50.950;11.762;2023-02-08T07:31:22;100670.78;;;-8.12;100.00
17505;BME280;8870;50.950;11.762;2023-02-08T07:36:53;100672.56;;;-8.08;100.00
17505;BME280;8870;50.950;11.762;2023-02-08T07:42:12;100680.44;;;-8.01;100.00
17505;BME280;8870;50.950;11.762;2023-02-08T07:47:59;100679.63;;;-7.91;100.00
17505;BME280;8870;50.950;11.762;2023-02-08T07:53:18;100689.28;;;-7.81;100.00
17505;BME280;8870;50.950;11.762;2023-02-08T07:58:49;100685.00;;;-7.69;100.00
17505;BME280;8870;50.950;11.762;2023-02-08T08:04:09;100691.19;;;-7.58;100.00
17505;BME280;8870;50.950;11.762;2023-02-08T08:09:43;100697.38;;;-7.45;100.00
17505;BME280;8870;50.950;11.762;2023-02-08T08:15:01;100700.06;;;-7.33;100.00
17505;BME280;8870;50.950;11.762;2023-02-08T08:20:35;100706.22;;;-7.20;100.00
17505;BME280;8870;50.950;11.762;2023-02-08T08:25:54;100694.91;;;-7.09;100.00
17505;BME280;8870;50.950;11.762;2023-02-08T08:31:25;100702.84;;;-6.94;100.00
17505;BME280;8870;50.950;11.762;2023-02-08T08:36:47;100706.38;;;-6.81;100.00
17505;BME280;8870;50.950;11.762;2023-02-08T08:42:19;100703.81;;;-6.67;100.00
17505;BME280;8870;50.950;11.762;2023-02-08T08:47:37;100701.22;;;-6.48;100.00
17505;BME280;8870;50.950;11.762;2023-02-08T08:53:10;100695.13;;;-6.26;100.00
17505;BME280;8870;50.950;11.762;2023-02-08T08:58:29;100696.88;;;-6.03;100.00
17505;BME280;8870;50.950;11.762;2023-02-08T09:04:01;100674.97;;;-5.82;100.00
17505;BME280;8870;50.950;11.762;2023-02-08T09:09:21;100674.06;;;-5.64;100.00
17505;BME280;8870;50.950;11.762;2023-02-08T09:14:53;100666.13;;;-5.50;100.00
17505;BME280;8870;50.950;11.762;2023-02-08T09:20:11;100662.56;;;-5.32;100.00
17505;BME280;8870;50.950;11.762;2023-02-08T09:25:45;100661.63;;;-5.12;100.00
17505;BME280;8870;50.950;11.762;2023-02-08T09:31:07;100658.91;;;-4.93;100.00
17505;BME280;8870;50.950;11.762;2023-02-08T09:36:39;100652.69;;;-4.77;100.00
17505;BME280;8870;50.950;11.762;2023-02-08T09:42:15;100662.19;;;-4.57;100.00
17505;BME280;8870;50.950;11.762;2023-02-08T09:47:55;100657.66;;;-4.37;100.00
17505;BME280;8870;50.950;11.762;2023-02-08T09:53:18;100651.38;;;-4.19;100.00
17505;BME280;8870;50.950;11.762;2023-02-08T09:58:55;100657.38;;;-4.03;100.00
17505;BME280;8870;50.950;11.762;2023-02-08T10:04:27;100660.75;;;-3.85;100.00
17505;BME280;8870;50.950;11.762;2023-02-08T10:10:03;100650.78;;;-3.58;100.00
17505;BME280;8870;50.950;11.762;2023-02-08T10:15:32;100647.88;;;-3.33;100.00
17505;BME280;8870;50.950;11.762;2023-02-08T10:21:25;100640.47;;;-3.02;100.00
17505;BME280;8870;50.950;11.762;2023-02-08T10:26:47;100638.47;;;-2.83;100.00
17505;BME280;8870;50.950;11.762;2023-02-08T10:32:44;100633.59;;;-2.53;100.00
17505;BME280;8870;50.950;11.762;2023-02-08T10:38:20;100624.19;;;-2.13;100.00
17505;BME280;8870;50.950;11.762;2023-02-08T10:44:03;100614.78;;;-1.79;100.00
17505;BME280;8870;50.950;11.762;2023-02-08T10:49:32;100608.03;;;-1.47;100.00
17505;BME280;8870;50.950;11.762;2023-02-08T10:55:12;100591.44;;;-1.13;100.00
17505;BME280;8870;50.950;11.762;2023-02-08T11:00:33;100577.56;;;-0.85;100.00
17505;BME280;8870;50.950;11.762;2023-02-08T11:06:24;100567.28;;;-0.60;100.00
17505;BME280;8870;50.950;11.762;2023-02-08T11:11:44;100564.81;;;-0.32;100.00
17505;BME280;8870;50.950;11.762;2023-02-08T11:17:24;100551.41;;;-0.25;100.00
17505;BME280;8870;50.950;11.762;2023-02-08T11:22:46;100550.09;;;-0.09;100.00
17505;BME280;8870;50.950;11.762;2023-02-08T11:28:26;100547.84;;;0.09;100.00
17505;BME280;8870;50.950;11.762;2023-02-08T11:33:59;100536.66;;;0.30;100.00
17505;BME280;8870;50.950;11.762;2023-02-08T11:39:38;100530.91;;;0.46;100.00
17505;BME280;8870;50.950;11.762;2023-02-08T11:44:58;100531.31;;;0.62;100.00
17505;BME280;8870;50.950;11.762;2023-02-08T11:50:32;100514.91;;;0.79;100.00
17505;BME280;8870;50.950;11.762;2023-02-08T11:56:01;100518.13;;;0.89;100.00
17505;BME280;8870;50.950;11.762;2023-02-08T12:01:35;100523.06;;;1.01;100.00
17505;BME280;8870;50.950;11.762;2023-02-08T12:07:15;100517.16;;;1.20;100.00
17505;BME280;8870;50.950;11.762;2023-02-08T12:18:49;100515.28;;;1.50;100.00
17505;BME280;8870;50.950;11.762;2023-02-08T12:24:29;100514.09;;;1.59;100.00
17505;BME280;8870;50.950;11.762;2023-02-08T12:30:00;100503.91;;;1.72;100.00
17505;BME280;8870;50.950;11.762;2023-02-08T12:35:53;100488.69;;;1.77;100.00
17505;BME280;8870;50.950;11.762;2023-02-08T12:41:17;100486.50;;;1.89;100.00
17505;BME280;8870;50.950;11.762;2023-02-08T12:46:59;100476.25;;;2.03;100.00
17505;BME280;8870;50.950;11.762;2023-02-08T12:52:31;100465.94;;;2.18;100.00
17505;BME280;8870;50.950;11.762;2023-02-08T12:58:17;100457.66;;;2.27;100.00
17505;BME280;8870;50.950;11.762;2023-02-08T13:03:46;100439.97;;;2.48;100.00
17505;BME280;8870;50.950;11.762;2023-02-08T13:09:27;100440.25;;;2.64;100.00
17505;BME280;8870;50.950;11.762;2023-02-08T13:14:54;100439.44;;;2.84;100.00
17505;BME280;8870;50.950;11.762;2023-02-08T13:20:51;100428.25;;;2.98;100.00
17505;BME280;8870;50.950;11.762;2023-02-08T13:26:12;100427.06;;;3.26;100.00
17505;BME280;8870;50.950;11.762;2023-02-08T13:31:49;100414.84;;;3.43;100.00
17505;BME280;8870;50.950;11.762;2023-02-08T13:37:21;100406.97;;;3.60;100.00
17505;BME280;8870;50.950;11.762;2023-02-08T13:42:58;100405.59;;;3.91;100.00
17505;BME280;8870;50.950;11.762;2023-02-08T14:09:35;100393.69;;;4.92;100.00
17505;BME280;8870;50.950;11.762;2023-02-08T14:15:29;100395.06;;;5.01;100.00
17505;BME280;8870;50.950;11.762;2023-02-08T14:20:58;100387.22;;;5.16;100.00
17505;BME280;8870;50.950;11.762;2023-02-08T14:26:34;100389.88;;;5.33;100.00
17505;BME280;8870;50.950;11.762;2023-02-08T14:31:53;100387.84;;;5.38;100.00
17505;BME280;8870;50.950;11.762;2023-02-08T14:37:28;100391.06;;;5.45;100.00
17505;BME280;8870;50.950;11.762;2023-02-08T14:42:57;100380.03;;;5.51;100.00
17505;BME280;8870;50.950;11.762;2023-02-08T14:48:29;100393.56;;;5.48;99.29
17505;BME280;8870;50.950;11.762;2023-02-08T14:53:51;100380.91;;;5.52;100.00
17505;BME280;8870;50.950;11.762;2023-02-08T14:59:29;100375.78;;;5.47;100.00
17505;BME280;8870;50.950;11.762;2023-02-08T15:04:48;100379.94;;;5.53;100.00
17505;BME280;8870;50.950;11.762;2023-02-08T15:10:26;100377.53;;;5.31;100.00
17505;BME280;8870;50.950;11.762;2023-02-08T15:15:50;100379.56;;;5.25;100.00
17505;BME280;8870;50.950;11.762;2023-02-08T15:21:27;100373.44;;;5.06;100.00
17505;BME280;8870;50.950;11.762;2023-02-08T15:26:51;100365.34;;;4.90;100.00
17505;BME280;8870;50.950;11.762;2023-02-08T15:32:27;100366.66;;;4.63;100.00
17505;BME280;8870;50.950;11.762;2023-02-08T15:37:46;100373.00;;;4.42;100.00
17505;BME280;8870;50.950;11.762;2023-02-08T15:43:19;100373.97;;;4.03;100.00
17505;BME280;8870;50.950;11.762;2023-02-08T15:48:40;100358.03;;;3.61;100.00
17505;BME280;8870;50.950;11.762;2023-02-08T15:54:14;100346.34;;;3.03;100.00
17505;BME280;8870;50.950;11.762;2023-02-08T15:59:36;100344.25;;;2.46;100.00
17505;BME280;8870;50.950;11.762;2023-02-08T16:05:19;100349.31;;;1.84;100.00
17505;BME280;8870;50.950;11.762;2023-02-08T16:10:42;100353.47;;;1.44;100.00
17505;BME280;8870;50.950;11.762;2023-02-08T16:16:18;100353.28;;;0.98;100.00
17505;BME280;8870;50.950;11.762;2023-02-08T16:21:41;100349.25;;;0.59;100.00
17505;BME280;8870;50.950;11.762;2023-02-08T16:27:19;100361.84;;;0.24;100.00
17505;BME280;8870;50.950;11.762;2023-02-08T16:32:39;100357.06;;;0.07;100.00
17505;BME280;8870;50.950;11.762;2023-02-08T16:38:19;100359.59;;;-0.18;100.00
17505;BME280;8870;50.950;11.762;2023-02-08T16:43:39;100344.31;;;-0.40;100.00
17505;BME280;8870;50.950;11.762;2023-02-08T16:49:11;100335.16;;;-0.59;100.00
17505;BME280;8870;50.950;11.762;2023-02-08T16:54:32;100341.78;;;-0.76;100.00
17505;BME280;8870;50.950;11.762;2023-02-08T17:00:12;100337.81;;;-0.93;100.00
17505;BME280;8870;50.950;11.762;2023-02-08T17:05:35;100342.47;;;-1.01;100.00
17505;BME280;8870;50.950;11.762;2023-02-08T17:11:11;100339.13;;;-1.09;100.00
17505;BME280;8870;50.950;11.762;2023-02-08T17:16:37;100338.59;;;-1.22;100.00
17505;BME280;8870;50.950;11.762;2023-02-08T17:22:08;100341.47;;;-1.33;100.00
17505;BME280;8870;50.950;11.762;2023-02-08T17:27:28;100339.13;;;-1.44;100.00
17505;BME280;8870;50.950;11.762;2023-02-08T17:33:00;100337.50;;;-1.49;100.00
17505;BME280;8870;50.950;11.762;2023-02-08T17:38:18;100349.13;;;-1.57;100.00
17505;BME280;8870;50.950;11.762;2023-02-08T17:43:54;100354.56;;;-1.63;100.00
17505;BME280;8870;50.950;11.762;2023-02-08T17:49:13;100352.94;;;-1.70;100.00
17505;BME280;8870;50.950;11.762;2023-02-08T17:54:44;100343.59;;;-1.85;100.00
17505;BME280;8870;50.950;11.762;2023-02-08T18:00:07;100351.69;;;-1.93;100.00
17505;BME280;8870;50.950;11.762;2023-02-08T18:05:32;100351.91;;;-2.02;100.00
17505;BME280;8870;50.950;11.762;2023-02-08T18:11:03;100363.41;;;-2.05;100.00
17505;BME280;8870;50.950;11.762;2023-02-08T18:16:27;100364.44;;;-2.10;100.00
17505;BME280;8870;50.950;11.762;2023-02-08T18:21:59;100356.69;;;-2.20;100.00
17505;BME280;8870;50.950;11.762;2023-02-08T18:27:18;100356.06;;;-2.31;100.00
17505;BME280;8870;50.950;11.762;2023-02-08T18:32:51;100351.88;;;-2.43;100.00
17505;BME280;8870;50.950;11.762;2023-02-08T18:38:10;100349.53;;;-2.57;100.00
17505;BME280;8870;50.950;11.762;2023-02-08T18:43:41;100342.81;;;-2.73;100.00
17505;BME280;8870;50.950;11.762;2023-02-08T18:49:01;100345.47;;;-2.75;100.00
17505;BME280;8870;50.950;11.762;2023-02-08T18:54:36;100340.25;;;-2.78;100.00
17505;BME280;8870;50.950;11.762;2023-02-08T18:59:54;100335.91;;;-2.81;100.00
17505;BME280;8870;50.950;11.762;2023-02-08T19:05:27;100330.66;;;-2.82;100.00
17505;BME280;8870;50.950;11.762;2023-02-08T19:10:46;100341.28;;;-2.87;100.00
17505;BME280;8870;50.950;11.762;2023-02-08T19:16:18;100330.88;;;-2.93;100.00
17505;BME280;8870;50.950;11.762;2023-02-08T19:21:39;100326.53;;;-2.97;100.00
17505;BME280;8870;50.950;11.762;2023-02-08T19:27:11;100326.63;;;-3.02;100.00
17505;BME280;8870;50.950;11.762;2023-02-08T19:32:29;100324.97;;;-3.06;100.00
17505;BME280;8870;50.950;11.762;2023-02-08T19:38:02;100316.16;;;-3.06;100.00
17505;BME280;8870;50.950;11.762;2023-02-08T19:43:21;100316.25;;;-3.11;100.00
17505;BME280;8870;50.950;11.762;2023-02-08T19:48:53;100311.03;;;-3.13;100.00
17505;BME280;8870;50.950;11.762;2023-02-08T19:54:17;100311.97;;;-3.17;100.00
17505;BME280;8870;50.950;11.762;2023-02-08T19:59:49;100299.69;;;-3.18;100.00
17505;BME280;8870;50.950;11.762;2023-02-08T20:05:12;100285.66;;;-3.20;100.00
17505;BME280;8870;50.950;11.762;2023-02-08T20:10:47;100275.16;;;-3.23;100.00
17505;BME280;8870;50.950;11.762;2023-02-08T20:16:06;100285.69;;;-3.23;100.00
17505;BME280;8870;50.950;11.762;2023-02-08T20:21:37;100274.38;;;-3.28;100.00
17505;BME280;8870;50.950;11.762;2023-02-08T20:26:58;100277.06;;;-3.31;100.00
17505;BME280;8870;50.950;11.762;2023-02-08T20:32:30;100261.34;;;-3.36;100.00
17505;BME280;8870;50.950;11.762;2023-02-08T20:37:48;100270.97;;;-3.35;100.00
17505;BME280;8870;50.950;11.762;2023-02-08T20:43:21;100264.84;;;-3.35;100.00
17505;BME280;8870;50.950;11.762;2023-02-08T20:48:40;100265.75;;;-3.38;100.00
17505;BME280;8870;50.950;11.762;2023-02-08T20:54:11;100260.56;;;-3.43;100.00
17505;BME280;8870;50.950;11.762;2023-02-08T20:59:32;100255.31;;;-3.43;100.00
17505;BME280;8870;50.950;11.762;2023-02-08T21:05:03;100236.84;;;-3.43;100.00
17505;BME280;8870;50.950;11.762;2023-02-08T21:10:29;100243.06;;;-3.47;100.00
17505;BME280;8870;50.950;11.762;2023-02-08T21:16:05;100245.78;;;-3.50;100.00
17505;BME280;8870;50.950;11.762;2023-02-08T21:21:24;100220.34;;;-3.52;100.00
17505;BME280;8870;50.950;11.762;2023-02-08T21:26:56;100210.72;;;-3.55;100.00
17505;BME280;8870;50.950;11.762;2023-02-08T21:32:18;100202.94;;;-3.63;100.00
17505;BME280;8870;50.950;11.762;2023-02-08T21:37:49;100203.84;;;-3.62;100.00
17505;BME280;8870;50.950;11.762;2023-02-08T21:43:07;100196.88;;;-3.66;100.00
17505;BME280;8870;50.950;11.762;2023-02-08T21:48:41;100195.31;;;-3.77;100.00
17505;BME280;8870;50.950;11.762;2023-02-08T21:54:12;100180.44;;;-3.79;100.00
17505;BME280;8870;50.950;11.762;2023-02-08T21:59:58;100177.88;;;-3.84;100.00
17505;BME280;8870;50.950;11.762;2023-02-08T22:05:19;100177.94;;;-3.87;100.00
17505;BME280;8870;50.950;11.762;2023-02-08T22:10:52;100175.38;;;-3.92;100.00
17505;BME280;8870;50.950;11.762;2023-02-08T22:16:10;100167.50;;;-3.93;100.00
17505;BME280;8870;50.950;11.762;2023-02-08T22:21:43;100156.09;;;-3.94;100.00
17505;BME280;8870;50.950;11.762;2023-02-08T22:27:02;100161.41;;;-3.95;100.00
17505;BME280;8870;50.950;11.762;2023-02-08T22:32:34;100162.28;;;-3.96;100.00
17505;BME280;8870;50.950;11.762;2023-02-08T22:37:55;100160.56;;;-3.97;100.00
17505;BME280;8870;50.950;11.762;2023-02-08T22:43:27;100157.97;;;-4.00;100.00
17505;BME280;8870;50.950;11.762;2023-02-08T22:48:45;100158.91;;;-4.05;100.00
17505;BME280;8870;50.950;11.762;2023-02-08T22:54:18;100148.38;;;-4.05;100.00
17505;BME280;8870;50.950;11.762;2023-02-08T22:59:37;100147.59;;;-4.10;100.00
17505;BME280;8870;50.950;11.762;2023-02-08T23:05:08;100160.00;;;-4.16;100.00
17505;BME280;8870;50.950;11.762;2023-02-08T23:10:35;100160.97;;;-4.22;100.00
17505;BME280;8870;50.950;11.762;2023-02-08T23:16:10;100156.63;;;-4.25;100.00
17505;BME280;8870;50.950;11.762;2023-02-08T23:21:29;100155.78;;;-4.28;100.00
17505;BME280;8870;50.950;11.762;2023-02-08T23:27:02;100147.97;;;-4.33;100.00
17505;BME280;8870;50.950;11.762;2023-02-08T23:32:21;100145.34;;;-4.33;100.00
17505;BME280;8870;50.950;11.762;2023-02-08T23:37:52;100148.00;;;-4.35;100.00
17505;BME280;8870;50.950;11.762;2023-02-08T23:43:13;100136.53;;;-4.30;100.00
17505;BME280;8870;50.950;11.762;2023-02-08T23:48:44;100143.38;;;-4.20;100.00
17505;BME280;8870;50.950;11.762;2023-02-08T23:54:02;100141.53;;;-4.15;100.00
17505;BME280;8870;50.950;11.762;2023-02-08T23:59:37;100138.00;;;-4.12;100.00
